Obelix — 7JAX — position and weather

sailwx.info

Track history (hours):
 
Tides and Currents Weather Stations Pressure Air Temp Water Temp Dewpoint Dewpoint Depression Visibility Wind Speed Wind Dir Waves Ship Positions

Obelix

Last reported at 2017-May-27 15:19 UTC. Time now 2017-May-27 15:48 UTC.
Position N 34°56' E 139°24'.

Length 74 m; draft 4.5 m.

Type: Tanker. MMSI: 432528000.

Date/timePositionNaut miles runAvg speedWind from/ knotsBaromVisibWave heightAir tempDewpointWater temp
2017-May-27 15:19N 34°56' E 139°24'412.2
2017-May-27 15:00N 34°58' E 139°28'612.5
2017-May-27 14:30N 35°02' E 139°34'1212.4
2017-May-27 13:30N 35°11' E 139°45'611.5
2017-May-27 13:00N 35°17' E 139°45'612.0
2017-May-27 12:30N 35°22' E 139°42'612.0
2017-May-27 12:00N 35°27' E 139°47'612.5
2017-May-27 11:30N 35°30' E 139°53'611.5
2017-May-27 11:00N 35°30' E 140°00'2 0.5
2017-May-27 07:57N 35°30' E 140°02'0 0.0
2017-May-27 07:27N 35°30' E 140°02'0 0.0
2017-May-27 05:57N 35°30' E 140°02'0 0.0
2017-May-27 05:27N 35°30' E 140°02'0 0.0
2017-May-27 04:57N 35°30' E 140°02'0 0.8
2017-May-27 04:26N 35°30' E 140°02'1 3.1
2017-May-27 03:58N 35°30' E 139°60'2 2.7
2017-May-27 03:17N 35°30' E 139°58'1 3.2
2017-May-27 02:56N 35°30' E 139°56'4 8.9
2017-May-27 02:30N 35°28' E 139°52'511.0
2017-May-27 02:00N 35°25' E 139°47'3 5.5
2017-May-27 01:30N 35°23' E 139°44'0 0.1
2017-May-27 00:58N 35°23' E 139°45'0 0.1
2017-May-27 00:28N 35°23' E 139°44'0 0.0
2017-May-26 23:58N 35°23' E 139°44'0 0.0
2017-May-26 23:28N 35°23' E 139°44'0 0.0
2017-May-26 22:58N 35°23' E 139°44'0 0.0
2017-May-26 22:28N 35°23' E 139°44'0 0.0
2017-May-26 21:58N 35°23' E 139°44'0 0.1
2017-May-26 21:25N 35°23' E 139°44'0 0.0
2017-May-26 20:58N 35°23' E 139°44'0 0.1
2017-May-26 20:28N 35°23' E 139°45'0 0.0
2017-May-26 19:58N 35°23' E 139°45'0 0.1
2017-May-26 19:28N 35°23' E 139°44'0 0.0
2017-May-26 18:58N 35°23' E 139°44'0 0.0
2017-May-26 18:28N 35°23' E 139°44'0 0.0
2017-May-26 17:58N 35°23' E 139°44'0 0.0
2017-May-26 17:28N 35°23' E 139°44'0 0.0
2017-May-26 16:58N 35°23' E 139°44'0 0.0
2017-May-26 16:28N 35°23' E 139°44'0 0.0
2017-May-26 15:58N 35°23' E 139°44'0 0.0
2017-May-26 15:28N 35°23' E 139°44'0 0.0
2017-May-26 14:58N 35°23' E 139°44'0 0.1
2017-May-26 14:00N 35°23' E 139°45'4 8.4
2017-May-26 13:31N 35°19' E 139°44'510.8
2017-May-26 13:01N 35°14' E 139°47'611.5
2017-May-26 12:30N 35°08' E 139°45'612.4
2017-May-26 12:00N 35°03' E 139°41'612.7
2017-May-26 11:30N 34°59' E 139°35'712.6
2017-May-26 10:58N 34°55' E 139°28'228 9.9
2017-May-25 12:03N 34°04' E 134°59'111.5
2017-May-25 11:57N 34°05' E 134°59'511.6
2017-May-25 11:29N 34°10' E 134°58'710.4
2017-May-25 10:47N 34°17' E 134°58'4 8.9
2017-May-25 10:20N 34°21' E 134°60'410.9
2017-May-25 09:57N 34°25' E 135°00'510.9
2017-May-25 09:30N 34°30' E 135°02'5 9.7
2017-May-25 09:00N 34°35' E 135°02'5 7.2
2017-May-25 08:21N 34°36' E 134°57'8 0.4
2017-May-24 12:08N 34°40' E 134°48'611.7
2017-May-24 11:38N 34°37' E 134°54'213.4
2017-May-24 11:28N 34°37' E 134°57'613.4
2017-May-24 11:00N 34°36' E 135°04'611.9
2017-May-24 10:30N 34°30' E 135°04'713.1
2017-May-24 09:58N 34°23' E 135°02'613.6
2017-May-24 09:30N 34°17' E 134°59'612.7
2017-May-24 09:00N 34°11' E 134°59'612.7
2017-May-24 08:30N 34°04' E 134°60'210 9.8
2017-May-23 11:04N 34°46' E 139°10'211.1
2017-May-23 10:51N 34°48' E 139°11'1611.2
2017-May-23 09:24N 34°58' E 139°27'410.7
2017-May-23 09:00N 35°01' E 139°31'510.7
2017-May-23 08:30N 35°04' E 139°36'511.1
2017-May-23 08:00N 35°07' E 139°41'611.0
2017-May-23 07:30N 35°12' E 139°45'510.8
2017-May-23 07:00N 35°17' E 139°45'510.6
2017-May-23 06:30N 35°22' E 139°42'510.5
2017-May-23 06:00N 35°26' E 139°46'611.3
2017-May-23 05:30N 35°30' E 139°51'510.7
2017-May-23 05:00N 35°30' E 139°58'3 0.7
2017-May-22 23:53N 35°30' E 140°02'0 0.0
2017-May-22 23:30N 35°30' E 140°02'2 3.4
2017-May-22 22:50N 35°31' E 139°60'1 1.3
2017-May-22 22:22N 35°31' E 139°59'2 3.3
2017-May-22 21:52N 35°30' E 139°57'1 3.9
2017-May-22 21:30N 35°30' E 139°56'510.3
2017-May-22 21:00N 35°27' E 139°50'612.2
2017-May-22 20:30N 35°22' E 139°46'510.6
2017-May-22 20:00N 35°17' E 139°45'510.6
2017-May-22 19:30N 35°12' E 139°47'612.2
2017-May-22 19:00N 35°06' E 139°47'5 9.6
2017-May-22 18:27N 35°01' E 139°49'0 0.2
2017-May-22 18:00N 35°01' E 139°49'0 0.0
2017-May-22 17:29N 35°01' E 139°49'0 0.0
2017-May-22 17:00N 35°01' E 139°49'0 0.0
2017-May-22 16:27N 35°01' E 139°49'0 0.0
2017-May-22 15:56N 35°01' E 139°49'0 0.0
2017-May-22 15:30N 35°01' E 139°49'0 0.0
2017-May-22 15:00N 35°01' E 139°49'0 0.0
2017-May-22 13:58N 35°01' E 139°49'0 0.0
2017-May-22 13:30N 35°01' E 139°49'0 0.0
2017-May-22 13:00N 35°01' E 139°49'0 0.1
2017-May-22 12:29N 35°01' E 139°49'0 0.1
2017-May-22 11:59N 35°01' E 139°49'0 0.0
2017-May-22 11:31N 35°01' E 139°49'0 0.0
2017-May-22 11:00N 35°01' E 139°49'0 0.0
2017-May-22 10:29N 35°01' E 139°49'0 0.0
2017-May-22 10:00N 35°01' E 139°49'0 0.1
2017-May-22 09:29N 35°01' E 139°49'0 0.1
2017-May-22 09:00N 35°01' E 139°49'0 0.1
2017-May-22 08:30N 35°01' E 139°49'0 0.1
2017-May-22 08:00N 35°01' E 139°49'0 0.0
2017-May-22 07:30N 35°01' E 139°49'0 0.0
2017-May-22 07:00N 35°01' E 139°49'0 0.0
2017-May-22 06:30N 35°01' E 139°49'0 0.0
2017-May-22 05:52N 35°01' E 139°49'0 0.0
2017-May-22 05:10N 35°01' E 139°49'0 0.0
2017-May-22 04:52N 35°01' E 139°49'0 0.1
2017-May-22 04:28N 35°01' E 139°49'0 0.0
2017-May-22 03:58N 35°01' E 139°49'0 0.0
2017-May-22 03:16N 35°01' E 139°49'0 0.0
2017-May-22 02:52N 35°01' E 139°49'0 0.0
2017-May-22 02:28N 35°01' E 139°49'0 0.0
2017-May-22 01:34N 35°01' E 139°49'0 0.0
2017-May-22 01:16N 35°01' E 139°49'0 0.0
2017-May-22 00:58N 35°01' E 139°49'0 0.0
2017-May-22 00:16N 35°01' E 139°49'0 0.0
2017-May-21 23:58N 35°01' E 139°49'0 0.0
2017-May-21 23:28N 35°01' E 139°49'0 0.0
2017-May-21 22:52N 35°01' E 139°49'0 0.0
2017-May-21 22:28N 35°01' E 139°49'0 0.1
2017-May-21 21:52N 35°01' E 139°49'0 0.0
2017-May-21 21:22N 35°01' E 139°49'0 0.1
2017-May-21 20:46N 35°01' E 139°49'0 0.0
2017-May-21 20:28N 35°01' E 139°49'0 0.1
2017-May-21 19:58N 35°01' E 139°49'0 0.1
2017-May-21 19:16N 35°01' E 139°49'0 0.0
2017-May-21 18:52N 35°01' E 139°49'0 0.0
2017-May-21 18:22N 35°01' E 139°49'0 0.0
2017-May-21 17:58N 35°01' E 139°49'0 0.0
2017-May-21 17:28N 35°01' E 139°49'0 0.0
2017-May-21 16:52N 35°01' E 139°49'0 0.0
2017-May-21 16:28N 35°01' E 139°49'0 0.0
2017-May-21 15:46N 35°01' E 139°49'0 0.0
2017-May-21 15:28N 35°01' E 139°49'0 0.0
2017-May-21 14:58N 35°01' E 139°49'0 0.0
2017-May-21 14:28N 35°01' E 139°49'0 0.0
2017-May-21 13:28N 35°01' E 139°49'0 0.1
2017-May-21 12:58N 35°01' E 139°49'0 0.0
2017-May-21 12:28N 35°01' E 139°49'0 0.0
2017-May-21 11:58N 35°01' E 139°49'7 1.7
2017-May-21 07:58N 35°00' E 139°41'24510.8
2017-May-20 09:14N 33°59' E 134°53'312.1
2017-May-20 09:00N 34°02' E 134°51'612.2
2017-May-20 08:30N 34°06' E 134°46'3 0.1
2017-May-19 09:58N 34°08' E 134°44'611.7
2017-May-19 09:28N 34°04' E 134°49'611.9
2017-May-19 08:59N 33°60' E 134°54'25210.1
2017-May-18 08:10N 35°13' E 139°46'312.2
2017-May-18 07:57N 35°16' E 139°46'512.0
2017-May-18 07:30N 35°21' E 139°42'611.5
2017-May-18 07:00N 35°26' E 139°45'5 9.4
2017-May-18 06:30N 35°30' E 139°47'1 1.5
2017-May-18 05:58N 35°31' E 139°46'0 0.0
2017-May-18 05:28N 35°31' E 139°46'0 0.0
2017-May-18 04:58N 35°31' E 139°46'0 0.0
2017-May-18 04:28N 35°31' E 139°46'0 0.0
2017-May-18 03:58N 35°31' E 139°46'0 0.0
2017-May-18 03:30N 35°31' E 139°46'0 0.0
2017-May-18 03:00N 35°31' E 139°46'0 0.0
2017-May-18 02:30N 35°31' E 139°46'0 0.0
2017-May-18 02:00N 35°31' E 139°46'0 0.0
2017-May-18 01:30N 35°31' E 139°46'0 0.0
2017-May-18 01:00N 35°31' E 139°46'0 0.0
2017-May-18 00:30N 35°31' E 139°46'0 0.2
2017-May-18 00:00N 35°31' E 139°46'1 2.9
2017-May-17 23:30N 35°30' E 139°45'4 7.1
2017-May-17 23:00N 35°27' E 139°43'4 8.2
2017-May-17 22:30N 35°23' E 139°44'0 0.0
2017-May-17 21:58N 35°23' E 139°44'0 0.0
2017-May-17 21:28N 35°23' E 139°44'0 0.1
2017-May-17 20:58N 35°23' E 139°44'0 0.0
2017-May-17 20:28N 35°23' E 139°44'0 0.0
2017-May-17 19:58N 35°23' E 139°44'0 0.0
2017-May-17 19:28N 35°23' E 139°44'0 0.1
2017-May-17 18:58N 35°23' E 139°44'0 0.0
2017-May-17 18:25N 35°23' E 139°44'0 0.0
2017-May-17 17:58N 35°23' E 139°44'0 0.0
2017-May-17 17:28N 35°23' E 139°44'0 0.0
2017-May-17 16:58N 35°23' E 139°44'0 0.0
2017-May-17 16:28N 35°23' E 139°44'0 0.0
2017-May-17 15:58N 35°23' E 139°44'0 0.0
2017-May-17 15:28N 35°23' E 139°44'  
Track history (hours):
 
Tides and Currents Weather Stations Pressure Air Temp Water Temp Dewpoint Dewpoint Depression Visibility Wind Speed Wind Dir Waves Ship Positions

Obelix

Last reported at 2017-May-27 15:19 UTC. Time now 2017-May-27 15:48 UTC.
Position N 34°56' E 139°24'.

Length 74 m; draft 4.5 m.

Type: Tanker. MMSI: 432528000.

Date/timePositionNaut miles runAvg speedWind from/ knotsBaromVisibWave heightAir tempDewpointWater temp
2017-May-27 15:19N 34°56' E 139°24'412.2
2017-May-27 15:00N 34°58' E 139°28'612.5
2017-May-27 14:30N 35°02' E 139°34'1212.4
2017-May-27 13:30N 35°11' E 139°45'611.5
2017-May-27 13:00N 35°17' E 139°45'612.0
2017-May-27 12:30N 35°22' E 139°42'612.0
2017-May-27 12:00N 35°27' E 139°47'612.5
2017-May-27 11:30N 35°30' E 139°53'611.5
2017-May-27 11:00N 35°30' E 140°00'2 0.5
2017-May-27 07:57N 35°30' E 140°02'0 0.0
2017-May-27 07:27N 35°30' E 140°02'0 0.0
2017-May-27 05:57N 35°30' E 140°02'0 0.0
2017-May-27 05:27N 35°30' E 140°02'0 0.0
2017-May-27 04:57N 35°30' E 140°02'0 0.8
2017-May-27 04:26N 35°30' E 140°02'1 3.1
2017-May-27 03:58N 35°30' E 139°60'2 2.7
2017-May-27 03:17N 35°30' E 139°58'1 3.2
2017-May-27 02:56N 35°30' E 139°56'4 8.9
2017-May-27 02:30N 35°28' E 139°52'511.0
2017-May-27 02:00N 35°25' E 139°47'3 5.5
2017-May-27 01:30N 35°23' E 139°44'0 0.1
2017-May-27 00:58N 35°23' E 139°45'0 0.1
2017-May-27 00:28N 35°23' E 139°44'0 0.0
2017-May-26 23:58N 35°23' E 139°44'0 0.0
2017-May-26 23:28N 35°23' E 139°44'0 0.0
2017-May-26 22:58N 35°23' E 139°44'0 0.0
2017-May-26 22:28N 35°23' E 139°44'0 0.0
2017-May-26 21:58N 35°23' E 139°44'0 0.1
2017-May-26 21:25N 35°23' E 139°44'0 0.0
2017-May-26 20:58N 35°23' E 139°44'0 0.1
2017-May-26 20:28N 35°23' E 139°45'0 0.0
2017-May-26 19:58N 35°23' E 139°45'0 0.1
2017-May-26 19:28N 35°23' E 139°44'0 0.0
2017-May-26 18:58N 35°23' E 139°44'0 0.0
2017-May-26 18:28N 35°23' E 139°44'0 0.0
2017-May-26 17:58N 35°23' E 139°44'0 0.0
2017-May-26 17:28N 35°23' E 139°44'0 0.0
2017-May-26 16:58N 35°23' E 139°44'0 0.0
2017-May-26 16:28N 35°23' E 139°44'0 0.0
2017-May-26 15:58N 35°23' E 139°44'0 0.0
2017-May-26 15:28N 35°23' E 139°44'0 0.0
2017-May-26 14:58N 35°23' E 139°44'0 0.1
2017-May-26 14:00N 35°23' E 139°45'4 8.4
2017-May-26 13:31N 35°19' E 139°44'510.8
2017-May-26 13:01N 35°14' E 139°47'611.5
2017-May-26 12:30N 35°08' E 139°45'612.4
2017-May-26 12:00N 35°03' E 139°41'612.7
2017-May-26 11:30N 34°59' E 139°35'712.6
2017-May-26 10:58N 34°55' E 139°28'228 9.9
2017-May-25 12:03N 34°04' E 134°59'111.5
2017-May-25 11:57N 34°05' E 134°59'511.6
2017-May-25 11:29N 34°10' E 134°58'710.4
2017-May-25 10:47N 34°17' E 134°58'4 8.9
2017-May-25 10:20N 34°21' E 134°60'410.9
2017-May-25 09:57N 34°25' E 135°00'510.9
2017-May-25 09:30N 34°30' E 135°02'5 9.7
2017-May-25 09:00N 34°35' E 135°02'5 7.2
2017-May-25 08:21N 34°36' E 134°57'8 0.4
2017-May-24 12:08N 34°40' E 134°48'611.7
2017-May-24 11:38N 34°37' E 134°54'213.4
2017-May-24 11:28N 34°37' E 134°57'613.4
2017-May-24 11:00N 34°36' E 135°04'611.9
2017-May-24 10:30N 34°30' E 135°04'713.1
2017-May-24 09:58N 34°23' E 135°02'613.6
2017-May-24 09:30N 34°17' E 134°59'612.7
2017-May-24 09:00N 34°11' E 134°59'612.7
2017-May-24 08:30N 34°04' E 134°60'210 9.8
2017-May-23 11:04N 34°46' E 139°10'211.1
2017-May-23 10:51N 34°48' E 139°11'1611.2
2017-May-23 09:24N 34°58' E 139°27'410.7
2017-May-23 09:00N 35°01' E 139°31'510.7
2017-May-23 08:30N 35°04' E 139°36'511.1
2017-May-23 08:00N 35°07' E 139°41'611.0
2017-May-23 07:30N 35°12' E 139°45'510.8
2017-May-23 07:00N 35°17' E 139°45'510.6
2017-May-23 06:30N 35°22' E 139°42'510.5
2017-May-23 06:00N 35°26' E 139°46'611.3
2017-May-23 05:30N 35°30' E 139°51'510.7
2017-May-23 05:00N 35°30' E 139°58'3 0.7
2017-May-22 23:53N 35°30' E 140°02'0 0.0
2017-May-22 23:30N 35°30' E 140°02'2 3.4
2017-May-22 22:50N 35°31' E 139°60'1 1.3
2017-May-22 22:22N 35°31' E 139°59'2 3.3
2017-May-22 21:52N 35°30' E 139°57'1 3.9
2017-May-22 21:30N 35°30' E 139°56'510.3
2017-May-22 21:00N 35°27' E 139°50'612.2
2017-May-22 20:30N 35°22' E 139°46'510.6
2017-May-22 20:00N 35°17' E 139°45'510.6
2017-May-22 19:30N 35°12' E 139°47'612.2
2017-May-22 19:00N 35°06' E 139°47'5 9.6
2017-May-22 18:27N 35°01' E 139°49'0 0.2
2017-May-22 18:00N 35°01' E 139°49'0 0.0
2017-May-22 17:29N 35°01' E 139°49'0 0.0
2017-May-22 17:00N 35°01' E 139°49'0 0.0
2017-May-22 16:27N 35°01' E 139°49'0 0.0
2017-May-22 15:56N 35°01' E 139°49'0 0.0
2017-May-22 15:30N 35°01' E 139°49'0 0.0
2017-May-22 15:00N 35°01' E 139°49'0 0.0
2017-May-22 13:58N 35°01' E 139°49'0 0.0
2017-May-22 13:30N 35°01' E 139°49'0 0.0
2017-May-22 13:00N 35°01' E 139°49'0 0.1
2017-May-22 12:29N 35°01' E 139°49'0 0.1
2017-May-22 11:59N 35°01' E 139°49'0 0.0
2017-May-22 11:31N 35°01' E 139°49'0 0.0
2017-May-22 11:00N 35°01' E 139°49'0 0.0
2017-May-22 10:29N 35°01' E 139°49'0 0.0
2017-May-22 10:00N 35°01' E 139°49'0 0.1
2017-May-22 09:29N 35°01' E 139°49'0 0.1
2017-May-22 09:00N 35°01' E 139°49'0 0.1
2017-May-22 08:30N 35°01' E 139°49'0 0.1
2017-May-22 08:00N 35°01' E 139°49'0 0.0
2017-May-22 07:30N 35°01' E 139°49'0 0.0
2017-May-22 07:00N 35°01' E 139°49'0 0.0
2017-May-22 06:30N 35°01' E 139°49'0 0.0
2017-May-22 05:52N 35°01' E 139°49'0 0.0
2017-May-22 05:10N 35°01' E 139°49'0 0.0
2017-May-22 04:52N 35°01' E 139°49'0 0.1
2017-May-22 04:28N 35°01' E 139°49'0 0.0
2017-May-22 03:58N 35°01' E 139°49'0 0.0
2017-May-22 03:16N 35°01' E 139°49'0 0.0
2017-May-22 02:52N 35°01' E 139°49'0 0.0
2017-May-22 02:28N 35°01' E 139°49'0 0.0
2017-May-22 01:34N 35°01' E 139°49'0 0.0
2017-May-22 01:16N 35°01' E 139°49'0 0.0
2017-May-22 00:58N 35°01' E 139°49'0 0.0
2017-May-22 00:16N 35°01' E 139°49'0 0.0
2017-May-21 23:58N 35°01' E 139°49'0 0.0
2017-May-21 23:28N 35°01' E 139°49'0 0.0
2017-May-21 22:52N 35°01' E 139°49'0 0.0
2017-May-21 22:28N 35°01' E 139°49'0 0.1
2017-May-21 21:52N 35°01' E 139°49'0 0.0
2017-May-21 21:22N 35°01' E 139°49'0 0.1
2017-May-21 20:46N 35°01' E 139°49'0 0.0
2017-May-21 20:28N 35°01' E 139°49'0 0.1
2017-May-21 19:58N 35°01' E 139°49'0 0.1
2017-May-21 19:16N 35°01' E 139°49'0 0.0
2017-May-21 18:52N 35°01' E 139°49'0 0.0
2017-May-21 18:22N 35°01' E 139°49'0 0.0
2017-May-21 17:58N 35°01' E 139°49'0 0.0
2017-May-21 17:28N 35°01' E 139°49'0 0.0
2017-May-21 16:52N 35°01' E 139°49'0 0.0
2017-May-21 16:28N 35°01' E 139°49'0 0.0
2017-May-21 15:46N 35°01' E 139°49'0 0.0
2017-May-21 15:28N 35°01' E 139°49'0 0.0
2017-May-21 14:58N 35°01' E 139°49'0 0.0
2017-May-21 14:28N 35°01' E 139°49'0 0.0
2017-May-21 13:28N 35°01' E 139°49'0 0.1
2017-May-21 12:58N 35°01' E 139°49'0 0.0
2017-May-21 12:28N 35°01' E 139°49'0 0.0
2017-May-21 11:58N 35°01' E 139°49'7 1.7
2017-May-21 07:58N 35°00' E 139°41'24510.8
2017-May-20 09:14N 33°59' E 134°53'312.1
2017-May-20 09:00N 34°02' E 134°51'612.2
2017-May-20 08:30N 34°06' E 134°46'3 0.1
2017-May-19 09:58N 34°08' E 134°44'611.7
2017-May-19 09:28N 34°04' E 134°49'611.9
2017-May-19 08:59N 33°60' E 134°54'25210.1
2017-May-18 08:10N 35°13' E 139°46'312.2
2017-May-18 07:57N 35°16' E 139°46'512.0
2017-May-18 07:30N 35°21' E 139°42'611.5
2017-May-18 07:00N 35°26' E 139°45'5 9.4
2017-May-18 06:30N 35°30' E 139°47'1 1.5
2017-May-18 05:58N 35°31' E 139°46'0 0.0
2017-May-18 05:28N 35°31' E 139°46'0 0.0
2017-May-18 04:58N 35°31' E 139°46'0 0.0
2017-May-18 04:28N 35°31' E 139°46'0 0.0
2017-May-18 03:58N 35°31' E 139°46'0 0.0
2017-May-18 03:30N 35°31' E 139°46'0 0.0
2017-May-18 03:00N 35°31' E 139°46'0 0.0
2017-May-18 02:30N 35°31' E 139°46'0 0.0
2017-May-18 02:00N 35°31' E 139°46'0 0.0
2017-May-18 01:30N 35°31' E 139°46'0 0.0
2017-May-18 01:00N 35°31' E 139°46'0 0.0
2017-May-18 00:30N 35°31' E 139°46'0 0.2
2017-May-18 00:00N 35°31' E 139°46'1 2.9
2017-May-17 23:30N 35°30' E 139°45'4 7.1
2017-May-17 23:00N 35°27' E 139°43'4 8.2
2017-May-17 22:30N 35°23' E 139°44'0 0.0
2017-May-17 21:58N 35°23' E 139°44'0 0.0
2017-May-17 21:28N 35°23' E 139°44'0 0.1
2017-May-17 20:58N 35°23' E 139°44'0 0.0
2017-May-17 20:28N 35°23' E 139°44'0 0.0
2017-May-17 19:58N 35°23' E 139°44'0 0.0
2017-May-17 19:28N 35°23' E 139°44'0 0.1
2017-May-17 18:58N 35°23' E 139°44'0 0.0
2017-May-17 18:25N 35°23' E 139°44'0 0.0
2017-May-17 17:58N 35°23' E 139°44'0 0.0
2017-May-17 17:28N 35°23' E 139°44'0 0.0
2017-May-17 16:58N 35°23' E 139°44'0 0.0
2017-May-17 16:28N 35°23' E 139°44'0 0.0
2017-May-17 15:58N 35°23' E 139°44'0 0.0
2017-May-17 15:28N 35°23' E 139°44'  

Dump ship's entire track history